createdAt,value
2023-02-21T00:01:06.769Z,9.36
2023-02-21T00:03:52.532Z,9.30
2023-02-21T00:06:38.117Z,9.50
2023-02-21T00:09:23.781Z,9.50
2023-02-21T00:12:10.792Z,9.45
2023-02-21T00:14:56.982Z,9.54
2023-02-21T00:17:42.765Z,9.64
2023-02-21T00:20:28.540Z,9.53
2023-02-21T00:23:14.312Z,9.54
2023-02-21T00:26:00.265Z,9.59
2023-02-21T00:28:47.313Z,9.52
2023-02-21T00:31:36.780Z,9.45
2023-02-21T00:34:22.552Z,9.47
2023-02-21T00:37:08.209Z,9.55
2023-02-21T00:39:54.088Z,9.61
2023-02-21T00:42:39.639Z,9.56
2023-02-21T00:45:27.073Z,9.42
2023-02-21T00:48:12.756Z,9.41
2023-02-21T00:51:00.101Z,9.21
2023-02-21T00:53:45.748Z,9.16
2023-02-21T00:56:31.470Z,9.17
2023-02-21T00:59:17.115Z,9.22
2023-02-21T01:02:04.077Z,9.15
2023-02-21T01:04:49.917Z,9.06
2023-02-21T01:07:35.759Z,9.11
2023-02-21T01:10:21.303Z,9.06
2023-02-21T01:13:07.080Z,9.03
2023-02-21T01:15:52.843Z,9.03
2023-02-21T01:18:40.525Z,9.01
2023-02-21T01:21:31.025Z,9.11
2023-02-21T01:24:18.824Z,9.00
2023-02-21T01:27:04.459Z,8.92
2023-02-21T01:29:50.298Z,8.87
2023-02-21T01:32:35.993Z,8.83
2023-02-21T01:35:23.626Z,8.83
2023-02-21T01:38:10.445Z,8.86
2023-02-21T01:40:58.321Z,8.90
2023-02-21T01:43:45.265Z,8.85
2023-02-21T01:46:32.009Z,8.91
2023-02-21T01:49:20.153Z,8.95
2023-02-21T01:52:09.156Z,8.99
2023-02-21T01:54:56.553Z,8.93
2023-02-21T01:57:42.311Z,8.88
2023-02-21T02:00:30.842Z,8.78
2023-02-21T02:03:18.493Z,8.73
2023-02-21T02:06:07.612Z,8.78
2023-02-21T02:08:55.137Z,8.83
2023-02-21T02:11:55.143Z,8.88
2023-02-21T02:14:43.477Z,8.86
2023-02-21T02:17:16.845Z,8.85
2023-02-21T02:20:38.379Z,8.84
2023-02-21T02:23:40.064Z,8.80
2023-02-21T02:26:37.222Z,8.78
2023-02-21T02:29:19.203Z,8.77
2023-02-21T02:32:06.005Z,8.75
2023-02-21T02:34:54.697Z,8.75
2023-02-21T02:37:25.112Z,8.80
2023-02-21T02:40:00.335Z,8.80
2023-02-21T02:42:38.618Z,8.93
2023-02-21T02:45:10.026Z,8.87
2023-02-21T02:47:39.339Z,8.75
2023-02-21T02:50:10.716Z,8.68
2023-02-21T02:52:39.789Z,8.60
2023-02-21T02:55:26.287Z,8.55
2023-02-21T02:57:54.760Z,8.52
2023-02-21T03:00:23.534Z,8.53
2023-02-21T03:03:03.541Z,8.53
2023-02-21T03:05:41.088Z,8.40
2023-02-21T03:08:17.709Z,8.33
2023-02-21T03:10:49.268Z,8.42
2023-02-21T03:13:22.584Z,8.46
2023-02-21T03:15:54.059Z,8.28
2023-02-21T03:18:26.265Z,8.25
2023-02-21T03:20:57.689Z,8.13
2023-02-21T03:23:27.870Z,8.23
2023-02-21T03:25:58.093Z,8.12
2023-02-21T03:28:27.344Z,8.10
2023-02-21T03:30:57.564Z,8.10
2023-02-21T03:33:26.653Z,8.21
2023-02-21T03:35:56.133Z,8.18
2023-02-21T03:38:24.449Z,8.17
2023-02-21T03:40:52.591Z,8.14
2023-02-21T03:43:21.077Z,8.19
2023-02-21T03:45:53.265Z,8.14
2023-02-21T03:48:31.434Z,8.25
2023-02-21T03:51:07.569Z,8.22
2023-02-21T03:53:38.280Z,8.19
2023-02-21T03:56:08.308Z,8.09
2023-02-21T03:58:55.107Z,8.09
2023-02-21T04:01:23.199Z,8.07
2023-02-21T04:03:52.716Z,8.12
2023-02-21T04:06:22.076Z,8.05
2023-02-21T04:08:52.286Z,7.98
2023-02-21T04:11:22.322Z,8.11
2023-02-21T04:13:52.318Z,8.10
2023-02-21T04:16:20.542Z,8.17
2023-02-21T04:18:51.096Z,8.07
2023-02-21T04:21:22.194Z,8.25
2023-02-21T04:23:52.518Z,8.16
2023-02-21T04:26:20.937Z,8.02
2023-02-21T04:28:51.620Z,7.94
2023-02-21T04:31:20.534Z,7.95
2023-02-21T04:33:54.924Z,8.20
2023-02-21T04:36:32.748Z,7.93
2023-02-21T04:39:01.084Z,7.90
2023-02-21T04:41:29.104Z,7.84
2023-02-21T04:43:57.412Z,7.86
2023-02-21T04:46:25.517Z,7.87
2023-02-21T04:48:54.216Z,7.86
2023-02-21T04:51:24.036Z,7.71
2023-02-21T04:53:55.294Z,7.65
2023-02-21T04:56:25.093Z,7.67
2023-02-21T04:58:53.344Z,7.75
2023-02-21T05:01:22.284Z,7.65
2023-02-21T05:03:50.663Z,7.58
2023-02-21T05:06:19.482Z,7.58
2023-02-21T05:08:47.928Z,7.65
2023-02-21T05:11:18.043Z,7.66
2023-02-21T05:13:46.808Z,7.66
2023-02-21T05:16:15.148Z,7.66
2023-02-21T05:18:43.624Z,7.72
2023-02-21T05:21:11.839Z,7.61
2023-02-21T05:23:41.161Z,7.53
2023-02-21T05:26:10.992Z,7.53
2023-02-21T05:28:42.131Z,7.66
2023-02-21T05:31:10.235Z,7.56
2023-02-21T05:33:38.567Z,7.55
2023-02-21T05:36:07.285Z,7.63
2023-02-21T05:38:45.586Z,7.61
2023-02-21T05:41:13.963Z,7.59
2023-02-21T05:43:45.599Z,7.54
2023-02-21T05:46:19.968Z,7.49
2023-02-21T05:48:48.312Z,7.55
2023-02-21T05:51:16.761Z,7.57
2023-02-21T05:53:45.436Z,7.57
2023-02-21T05:56:13.962Z,7.59
2023-02-21T05:58:42.387Z,7.54
2023-02-21T06:01:11.814Z,7.49
2023-02-21T06:03:40.164Z,7.53
2023-02-21T06:06:08.411Z,7.50
2023-02-21T06:08:43.621Z,7.47
2023-02-21T06:11:12.122Z,7.52
2023-02-21T06:13:40.650Z,7.57
2023-02-21T06:16:08.758Z,7.36
2023-02-21T06:18:38.414Z,7.33
2023-02-21T06:21:06.820Z,7.29
2023-02-21T06:23:35.081Z,7.28
2023-02-21T06:26:03.060Z,7.38
2023-02-21T06:28:32.076Z,7.33
2023-02-21T06:31:01.986Z,7.31
2023-02-21T06:33:30.266Z,7.32
2023-02-21T06:35:59.780Z,7.43
2023-02-21T06:38:28.173Z,7.41
2023-02-21T06:40:56.179Z,7.54
2023-02-21T06:43:24.506Z,7.54
2023-02-21T06:45:52.660Z,7.67
2023-02-21T06:48:20.926Z,7.73
2023-02-21T06:50:48.934Z,7.62
2023-02-21T06:53:18.596Z,7.67
2023-02-21T06:55:46.594Z,7.63
2023-02-21T06:58:14.888Z,7.64
2023-02-21T07:00:42.897Z,7.69
2023-02-21T07:03:11.227Z,7.67
2023-02-21T07:05:39.439Z,7.85
2023-02-21T07:08:07.822Z,7.76
2023-02-21T07:10:37.305Z,7.67
2023-02-21T07:13:05.753Z,7.70
2023-02-21T07:15:33.734Z,7.64
2023-02-21T07:18:02.001Z,7.68
2023-02-21T07:20:30.778Z,7.59
2023-02-21T07:22:59.052Z,7.59
2023-02-21T07:25:27.058Z,7.57
2023-02-21T07:27:56.816Z,7.65
2023-02-21T07:30:24.877Z,7.67
2023-02-21T07:35:20.990Z,7.65
2023-02-21T07:37:49.287Z,7.67
2023-02-21T07:40:17.759Z,7.74
2023-02-21T07:42:47.761Z,7.89
2023-02-21T07:45:18.140Z,7.92
2023-02-21T07:47:48.112Z,7.96
2023-02-21T07:50:16.894Z,8.05
2023-02-21T07:52:46.396Z,8.00
2023-02-21T07:55:14.493Z,8.07
2023-02-21T07:57:42.908Z,8.07
2023-02-21T08:00:12.158Z,8.07
2023-02-21T08:02:48.613Z,8.20
2023-02-21T08:05:17.909Z,8.09
2023-02-21T08:07:46.721Z,8.21
2023-02-21T08:10:21.713Z,8.16
2023-02-21T08:12:50.310Z,8.24
2023-02-21T08:15:18.724Z,8.24
2023-02-21T08:17:50.641Z,8.41
2023-02-21T08:20:18.942Z,8.36
2023-02-21T08:22:47.281Z,8.45
2023-02-21T08:25:16.788Z,8.52
2023-02-21T08:27:46.601Z,8.49
2023-02-21T08:30:16.266Z,8.55
2023-02-21T08:32:48.124Z,8.55
2023-02-21T08:35:18.915Z,8.66
2023-02-21T08:37:47.549Z,8.59
2023-02-21T08:40:16.076Z,8.84
2023-02-21T08:42:44.493Z,8.76
2023-02-21T08:45:16.507Z,8.61
2023-02-21T08:47:44.868Z,8.60
2023-02-21T08:50:13.468Z,8.81
2023-02-21T08:52:43.122Z,8.74
2023-02-21T08:55:11.152Z,8.75
2023-02-21T08:57:39.395Z,8.79
2023-02-21T09:00:10.330Z,8.73
2023-02-21T09:02:40.163Z,8.88
2023-02-21T09:05:09.758Z,8.91
2023-02-21T09:07:38.113Z,9.08
2023-02-21T09:10:10.106Z,9.08
2023-02-21T09:12:38.717Z,9.13
2023-02-21T09:15:07.501Z,9.10
2023-02-21T09:17:35.980Z,9.10
2023-02-21T09:20:07.513Z,9.24
2023-02-21T09:22:35.955Z,9.26
2023-02-21T09:25:04.592Z,9.36
2023-02-21T09:27:40.322Z,9.48
2023-02-21T09:30:10.614Z,9.36
2023-02-21T09:32:39.856Z,9.54
2023-02-21T09:35:09.165Z,9.57
2023-02-21T09:37:39.187Z,9.72
2023-02-21T09:40:12.748Z,9.79
2023-02-21T09:42:42.608Z,9.82
2023-02-21T09:45:15.913Z,9.84
2023-02-21T09:47:44.360Z,10.00
2023-02-21T09:50:15.472Z,10.12
2023-02-21T09:52:43.773Z,10.18
2023-02-21T09:55:30.839Z,10.05
2023-02-21T09:58:00.706Z,10.30
2023-02-21T10:00:34.276Z,10.24
2023-02-21T10:03:11.928Z,10.38
2023-02-21T10:05:45.053Z,10.65
2023-02-21T10:08:20.676Z,10.72
2023-02-21T10:10:50.862Z,10.69
2023-02-21T10:13:32.917Z,11.01
2023-02-21T10:16:04.589Z,10.97
2023-02-21T10:18:38.538Z,11.03
2023-02-21T10:21:13.780Z,11.05
2023-02-21T10:23:46.561Z,11.03
2023-02-21T10:26:17.765Z,11.11
2023-02-21T10:28:47.435Z,11.15
2023-02-21T10:31:20.800Z,11.12
2023-02-21T10:33:49.261Z,11.32
2023-02-21T10:36:19.814Z,11.54
2023-02-21T10:38:54.986Z,11.47
2023-02-21T10:41:23.524Z,11.67
2023-02-21T10:43:55.788Z,11.62
2023-02-21T10:46:26.680Z,11.76
2023-02-21T10:48:57.549Z,11.85
2023-02-21T10:51:32.884Z,12.00
2023-02-21T10:54:20.534Z,11.97
2023-02-21T10:56:49.052Z,12.11
2023-02-21T10:59:24.008Z,12.03
2023-02-21T11:01:53.451Z,12.12
2023-02-21T11:04:31.855Z,12.49
2023-02-21T11:07:05.168Z,12.55
2023-02-21T11:09:37.621Z,12.69
2023-02-21T11:12:08.511Z,12.63
2023-02-21T11:14:38.195Z,12.84
2023-02-21T11:17:08.991Z,13.13
2023-02-21T11:19:45.864Z,13.14
2023-02-21T11:22:14.455Z,13.20
2023-02-21T11:24:47.854Z,13.34
2023-02-21T11:27:16.700Z,13.52
2023-02-21T11:29:48.802Z,13.64
2023-02-21T11:32:25.146Z,13.64
2023-02-21T11:35:02.392Z,13.80
2023-02-21T11:37:32.257Z,13.88
2023-02-21T11:40:01.978Z,14.04
2023-02-21T11:42:31.701Z,14.32
2023-02-21T11:45:14.246Z,14.47
2023-02-21T11:47:47.372Z,14.60
2023-02-21T11:50:20.950Z,14.90
2023-02-21T11:52:55.356Z,15.17
2023-02-21T11:55:26.656Z,15.28
2023-02-21T11:58:02.786Z,15.47
2023-02-21T12:00:42.104Z,15.92
2023-02-21T12:03:31.420Z,16.16
2023-02-21T12:06:03.238Z,16.57
2023-02-21T12:08:46.630Z,17.59
2023-02-21T12:11:24.079Z,18.48
2023-02-21T12:14:02.232Z,19.68
2023-02-21T12:16:38.608Z,20.78
2023-02-21T12:19:17.777Z,21.64
2023-02-21T12:22:02.315Z,22.63
2023-02-21T12:24:49.172Z,23.20
2023-02-21T12:27:22.765Z,23.91
2023-02-21T12:30:04.542Z,24.31
2023-02-21T12:32:45.276Z,24.80
2023-02-21T12:36:02.186Z,24.75
2023-02-21T12:38:36.041Z,25.87
2023-02-21T12:41:13.552Z,25.82
2023-02-21T12:43:51.260Z,25.48
2023-02-21T12:46:23.913Z,26.48
2023-02-21T12:48:59.632Z,26.93
2023-02-21T12:51:31.455Z,27.64
2023-02-21T12:54:03.559Z,28.47
2023-02-21T12:56:36.549Z,29.28
2023-02-21T12:59:09.418Z,29.21
2023-02-21T13:01:39.700Z,28.56
2023-02-21T13:04:17.542Z,29.87
2023-02-21T13:06:49.331Z,30.29
2023-02-21T13:09:26.659Z,29.94
2023-02-21T13:12:01.595Z,29.38
2023-02-21T13:14:34.150Z,29.77
2023-02-21T13:17:02.313Z,29.98
2023-02-21T13:19:44.262Z,30.88
2023-02-21T13:23:07.469Z,32.02
2023-02-21T13:26:06.233Z,32.17
2023-02-21T13:28:36.530Z,32.04
2023-02-21T13:31:06.597Z,31.88
2023-02-21T13:33:39.395Z,32.62
2023-02-21T13:36:22.830Z,32.13
2023-02-21T13:39:00.438Z,31.21
2023-02-21T13:41:31.092Z,31.77
2023-02-21T13:44:02.133Z,30.62
2023-02-21T13:47:05.275Z,30.58
2023-02-21T13:49:48.256Z,30.67
2023-02-21T13:52:49.977Z,31.73
2023-02-21T13:55:29.690Z,32.42
2023-02-21T13:58:46.648Z,31.69
2023-02-21T14:01:49.912Z,31.96
2023-02-21T14:05:00.144Z,33.12
2023-02-21T14:08:00.319Z,32.99
2023-02-21T14:10:35.439Z,33.88
2023-02-21T14:13:07.950Z,34.08
2023-02-21T14:15:42.207Z,32.82
2023-02-21T14:18:22.971Z,33.01
2023-02-21T14:20:55.241Z,31.98
2023-02-21T14:23:26.857Z,32.82
2023-02-21T14:26:00.047Z,33.45
2023-02-21T14:28:51.168Z,33.90
2023-02-21T14:31:53.566Z,34.23
2023-02-21T14:34:25.991Z,34.39
2023-02-21T14:36:57.508Z,34.06
2023-02-21T14:39:32.751Z,33.64
2023-02-21T14:42:21.046Z,33.65
2023-02-21T14:45:00.873Z,34.07
2023-02-21T14:47:40.986Z,34.22
2023-02-21T14:50:31.577Z,34.58
2023-02-21T14:53:22.627Z,35.04
2023-02-21T14:56:33.212Z,35.45
2023-02-21T14:59:20.841Z,34.89
2023-02-21T15:01:57.687Z,35.10
2023-02-21T15:04:35.749Z,35.26
2023-02-21T15:07:12.322Z,34.57
2023-02-21T15:09:40.654Z,34.54
2023-02-21T15:12:10.952Z,34.61
2023-02-21T15:14:42.980Z,34.89
2023-02-21T15:17:13.597Z,35.11
2023-02-21T15:19:42.024Z,34.34
2023-02-21T15:22:16.940Z,33.91
2023-02-21T15:25:03.233Z,34.24
2023-02-21T15:27:31.311Z,33.91
2023-02-21T15:30:14.293Z,33.92
2023-02-21T15:32:42.416Z,34.17
2023-02-21T15:35:14.586Z,33.77
2023-02-21T15:37:44.308Z,32.98
2023-02-21T15:40:19.030Z,33.10
2023-02-21T15:42:49.225Z,32.88
2023-02-21T15:45:21.010Z,32.77
2023-02-21T15:47:49.415Z,32.50
2023-02-21T15:50:28.915Z,32.06
2023-02-21T15:52:57.075Z,32.17
2023-02-21T15:55:30.683Z,31.40
2023-02-21T15:58:00.575Z,31.39
2023-02-21T16:00:31.610Z,30.98
2023-02-21T16:03:27.088Z,30.31
2023-02-21T16:05:56.544Z,29.71
2023-02-21T16:08:24.600Z,28.33
2023-02-21T16:10:53.016Z,26.90
2023-02-21T16:13:21.172Z,26.15
2023-02-21T16:15:50.785Z,25.73
2023-02-21T16:18:19.470Z,25.20
2023-02-21T16:21:00.049Z,24.44
2023-02-21T16:23:32.787Z,24.07
2023-02-21T16:26:02.952Z,23.73
2023-02-21T16:28:32.257Z,22.94
2023-02-21T16:31:03.756Z,22.46
2023-02-21T16:33:32.549Z,22.17
2023-02-21T16:36:03.563Z,22.04
2023-02-21T16:38:31.873Z,21.83
2023-02-21T16:41:00.117Z,21.74
2023-02-21T16:43:29.396Z,21.51
2023-02-21T16:45:59.097Z,21.40
2023-02-21T16:48:32.899Z,21.15
2023-02-21T16:51:03.157Z,20.88
2023-02-21T16:53:31.965Z,20.53
2023-02-21T16:56:01.471Z,20.27
2023-02-21T16:58:31.243Z,20.12
2023-02-21T17:01:02.072Z,19.94
2023-02-21T17:03:31.466Z,19.62
2023-02-21T17:06:00.865Z,19.33
2023-02-21T17:08:29.420Z,19.16
2023-02-21T17:10:58.468Z,18.94
2023-02-21T17:13:27.064Z,18.77
2023-02-21T17:15:55.522Z,18.68
2023-02-21T17:18:24.162Z,18.48
2023-02-21T17:20:53.907Z,18.38
2023-02-21T17:23:22.190Z,18.35
2023-02-21T17:25:50.533Z,17.95
2023-02-21T17:28:19.055Z,17.79
2023-02-21T17:30:47.555Z,17.59
2023-02-21T17:33:15.947Z,17.44
2023-02-21T17:35:44.419Z,17.25
2023-02-21T17:38:13.751Z,17.01
2023-02-21T17:40:42.109Z,16.95
2023-02-21T17:43:10.257Z,16.90
2023-02-21T17:45:38.634Z,16.71
2023-02-21T17:48:07.255Z,16.51
2023-02-21T17:50:35.598Z,16.46
2023-02-21T17:53:03.875Z,16.44
2023-02-21T17:55:33.540Z,16.25
2023-02-21T17:58:01.979Z,16.13
2023-02-21T18:00:34.083Z,16.01
2023-02-21T18:03:04.152Z,16.01
2023-02-21T18:05:32.824Z,15.96
2023-02-21T18:08:00.947Z,15.84
2023-02-21T18:10:29.267Z,15.67
2023-02-21T18:12:58.729Z,15.60
2023-02-21T18:15:28.842Z,15.54
2023-02-21T18:17:58.435Z,15.40
2023-02-21T18:20:26.721Z,15.28
2023-02-21T18:22:55.185Z,15.24
2023-02-21T18:25:24.202Z,15.11
2023-02-21T18:27:52.523Z,15.00
2023-02-21T18:30:22.808Z,14.95
2023-02-21T18:32:50.899Z,14.91
2023-02-21T18:35:19.683Z,14.75
2023-02-21T18:37:48.522Z,14.65
2023-02-21T18:40:18.040Z,14.66
2023-02-21T18:42:47.530Z,14.51
2023-02-21T18:45:15.871Z,14.34
2023-02-21T18:47:45.393Z,14.17
2023-02-21T18:50:13.914Z,14.07
2023-02-21T18:52:41.915Z,14.06
2023-02-21T18:55:12.497Z,13.97
2023-02-21T18:57:40.520Z,13.90
2023-02-21T19:00:10.488Z,13.75
2023-02-21T19:02:38.511Z,13.77
2023-02-21T19:05:08.697Z,13.79
2023-02-21T19:07:37.703Z,13.74
2023-02-21T19:10:06.683Z,13.71
2023-02-21T19:12:34.682Z,13.71
2023-02-21T19:15:03.115Z,13.68
2023-02-21T19:17:31.291Z,13.71
2023-02-21T19:19:59.598Z,13.67
2023-02-21T19:22:29.295Z,13.63
2023-02-21T19:24:58.172Z,13.53
2023-02-21T19:27:26.282Z,13.48
2023-02-21T19:29:54.922Z,13.49
2023-02-21T19:32:23.462Z,13.47
2023-02-21T19:34:52.560Z,13.38
2023-02-21T19:37:20.731Z,13.30
2023-02-21T19:39:50.367Z,13.25
2023-02-21T19:42:18.332Z,13.25
2023-02-21T19:44:46.604Z,13.19
2023-02-21T19:47:14.603Z,13.08
2023-02-21T19:49:45.925Z,13.08
2023-02-21T19:52:14.261Z,13.02
2023-02-21T19:54:42.670Z,12.95
2023-02-21T19:57:12.257Z,12.77
2023-02-21T19:59:40.527Z,12.69
2023-02-21T20:02:10.846Z,12.65
2023-02-21T20:04:39.485Z,12.61
2023-02-21T20:07:07.531Z,12.60
2023-02-21T20:09:36.032Z,12.55
2023-02-21T20:12:04.178Z,12.38
2023-02-21T20:14:33.945Z,12.23
2023-02-21T20:17:02.064Z,12.30
2023-02-21T20:19:30.516Z,12.35
2023-02-21T20:21:58.970Z,12.26
2023-02-21T20:24:27.617Z,12.28
2023-02-21T20:26:55.714Z,12.26
2023-02-21T20:29:25.533Z,12.25
2023-02-21T20:31:55.518Z,12.22
2023-02-21T20:34:24.666Z,12.14
2023-02-21T20:36:52.807Z,12.08
2023-02-21T20:39:28.023Z,11.91
2023-02-21T20:41:56.568Z,11.88
2023-02-21T20:44:25.393Z,11.72
2023-02-21T20:46:54.947Z,11.67
2023-02-21T20:49:23.400Z,11.79
2023-02-21T20:51:51.462Z,11.75
2023-02-21T20:54:21.978Z,11.62
2023-02-21T20:56:52.029Z,11.44
2023-02-21T20:59:22.497Z,11.40
2023-02-21T21:01:50.516Z,11.30
2023-02-21T21:04:22.323Z,11.25
2023-02-21T21:06:50.938Z,11.05
2023-02-21T21:09:28.631Z,10.95
2023-02-21T21:12:00.451Z,10.89
2023-02-21T21:14:29.928Z,11.05
2023-02-21T21:16:58.106Z,11.08
2023-02-21T21:19:32.972Z,11.17
2023-02-21T21:22:01.960Z,11.16
2023-02-21T21:24:31.880Z,11.16
2023-02-21T21:27:26.101Z,11.19
2023-02-21T21:29:54.490Z,11.25
2023-02-21T21:32:24.535Z,11.26
2023-02-21T21:34:55.737Z,11.24
2023-02-21T21:37:27.465Z,11.14
2023-02-21T21:39:56.620Z,11.03
2023-02-21T21:42:26.147Z,10.94
2023-02-21T21:44:56.084Z,10.78
2023-02-21T21:47:24.854Z,10.70
2023-02-21T21:49:55.172Z,10.68
2023-02-21T21:52:24.576Z,10.65
2023-02-21T21:54:52.852Z,10.73
2023-02-21T21:57:22.573Z,10.71
2023-02-21T21:59:51.475Z,10.59
2023-02-21T22:02:20.092Z,10.59
2023-02-21T22:04:49.030Z,10.58
2023-02-21T22:07:18.393Z,10.46
2023-02-21T22:09:47.378Z,10.39
2023-02-21T22:12:17.729Z,10.40
2023-02-21T22:14:45.964Z,10.47
2023-02-21T22:17:13.992Z,10.45
2023-02-21T22:19:42.893Z,10.39
2023-02-21T22:22:10.913Z,10.23
2023-02-21T22:24:41.428Z,10.24
2023-02-21T22:27:09.479Z,10.20
2023-02-21T22:29:37.806Z,10.08
2023-02-21T22:32:07.232Z,10.03
2023-02-21T22:34:35.568Z,9.99
2023-02-21T22:37:03.908Z,9.98
2023-02-21T22:39:32.150Z,9.98
2023-02-21T22:42:05.148Z,9.99
2023-02-21T22:44:36.346Z,10.19
2023-02-21T22:47:05.081Z,10.10
2023-02-21T22:49:33.379Z,9.88
2023-02-21T22:52:01.373Z,9.74
2023-02-21T22:54:31.546Z,9.74
2023-02-21T22:57:02.599Z,9.74
2023-02-21T22:59:31.258Z,9.74
2023-02-21T23:01:59.504Z,9.79
2023-02-21T23:04:27.880Z,9.72
2023-02-21T23:06:57.226Z,9.73
2023-02-21T23:09:25.983Z,9.80
2023-02-21T23:11:56.450Z,9.84
2023-02-21T23:14:26.949Z,9.76
2023-02-21T23:16:57.203Z,9.69
2023-02-21T23:19:25.678Z,9.72
2023-02-21T23:21:54.630Z,9.71
2023-02-21T23:24:23.456Z,9.66
2023-02-21T23:26:54.449Z,9.66
2023-02-21T23:29:26.111Z,9.63
2023-02-21T23:31:57.621Z,9.55
2023-02-21T23:34:39.782Z,9.57
2023-02-21T23:37:08.936Z,9.52
2023-02-21T23:39:37.331Z,9.66
2023-02-21T23:42:05.681Z,9.69
2023-02-21T23:44:36.191Z,9.74
2023-02-21T23:47:05.878Z,9.59
2023-02-21T23:49:34.226Z,9.42
2023-02-21T23:52:02.265Z,9.38
2023-02-21T23:54:30.766Z,9.31
2023-02-21T23:57:00.377Z,9.19
2023-02-21T23:59:29.048Z,9.10
